Time;durP1;ratioP1;P1;durP2;ratioP2;P2;SDS_P1;SDS_P2;PMS_P1;PMS_P2;Temp;Humidity;BMP_temperature;BMP_pressure;BME280_temperature;BME280_humidity;BME280_pressure;Samples;Min_cycle;Max_cycle;Signal;HPM_P1;HPM_P2
2022/08/06 00:02:07;;;;;;;0.00;0.00;;;;;;;;;;12266429;19;20153;-72
2022/08/06 00:06:08;;;;;;;0.00;0.00;;;;;;;;;;12266790;19;20022;-72
2022/08/06 00:10:08;;;;;;;0.00;0.00;;;;;;;;;;12270097;19;20013;-72
2022/08/06 00:14:09;;;;;;;0.00;0.00;;;;;;;;;;12266605;19;20007;-72
2022/08/06 00:18:09;;;;;;;0.00;0.00;;;;;;;;;;12273424;19;20045;-72
2022/08/06 00:22:10;;;;;;;0.00;0.00;;;;;;;;;;12285184;19;20026;-72
2022/08/06 00:26:10;;;;;;;0.00;0.00;;;;;;;;;;12282047;19;20240;-72
2022/08/06 00:30:11;;;;;;;0.00;0.00;;;;;;;;;;12277690;19;20003;-72
2022/08/06 00:34:12;;;;;;;0.00;0.00;;;;;;;;;;12278424;19;19999;-72
2022/08/06 00:38:12;;;;;;;0.00;0.00;;;;;;;;;;12276808;19;20219;-72
2022/08/06 00:42:13;;;;;;;0.00;0.00;;;;;;;;;;12283414;19;20231;-73
2022/08/06 00:46:13;;;;;;;0.00;0.00;;;;;;;;;;12281088;19;20005;-72
2022/08/06 00:50:14;;;;;;;0.00;0.00;;;;;;;;;;12276840;19;20002;-72
2022/08/06 00:54:14;;;;;;;0.00;0.00;;;;;;;;;;12276346;19;20043;-72
2022/08/06 00:58:15;;;;;;;0.00;0.00;;;;;;;;;;12276741;19;20210;-72
2022/08/06 01:02:15;;;;;;;0.00;0.00;;;;;;;;;;12280957;19;20438;-72
2022/08/06 01:06:15;;;;;;;0.00;0.00;;;;;;;;;;12278743;19;20245;-72
2022/08/06 01:10:16;;;;;;;0.00;0.00;;;;;;;;;;12274276;19;19991;-72
2022/08/06 01:14:16;;;;;;;0.00;0.00;;;;;;;;;;12274951;19;19979;-72
2022/08/06 01:18:25;;;;;;;0.00;0.00;;;;;;;;;;12280840;19;20010;-72
2022/08/06 01:22:50;;;;;;;0.00;0.00;;;;;;;;;;12279119;19;19999;-72
2022/08/06 01:27:09;;;;;;;0.00;0.00;;;;;;;;;;12276660;19;20014;-72
2022/08/06 01:31:14;;;;;;;0.00;0.00;;;;;;;;;;12272425;19;20059;-72
2022/08/06 01:35:26;;;;;;;0.00;0.00;;;;;;;;;;12274672;19;20014;-72
2022/08/06 01:39:29;;;;;;;0.00;0.00;;;;;;;;;;12279688;19;20002;-72
2022/08/06 01:43:32;;;;;;;0.00;0.00;;;;;;;;;;12278163;19;19998;-72
2022/08/06 01:47:34;;;;;;;0.00;0.00;;;;;;;;;;12275529;19;20024;-72
2022/08/06 01:51:37;;;;;;;0.00;0.00;;;;;;;;;;12270293;19;19987;-72
2022/08/06 01:55:44;;;;;;;0.00;0.00;;;;;;;;;;12273450;19;19979;-73
2022/08/06 01:59:49;;;;;;;0.00;0.00;;;;;;;;;;12279096;19;20010;-72
2022/08/06 02:03:55;;;;;;;0.00;0.00;;;;;;;;;;12273522;19;20006;-72
2022/08/06 02:07:57;;;;;;;0.00;0.00;;;;;;;;;;12274413;19;20003;-72
2022/08/06 02:12:01;;;;;;;0.00;0.00;;;;;;;;;;12269039;19;19995;-72
2022/08/06 02:16:04;;;;;;;0.00;0.00;;;;;;;;;;12271521;19;20192;-72
2022/08/06 02:20:08;;;;;;;0.00;0.00;;;;;;;;;;12277758;19;19995;-72
2022/08/06 02:24:10;;;;;;;0.00;0.00;;;;;;;;;;12275793;19;20066;-72
2022/08/06 02:28:12;;;;;;;0.00;0.00;;;;;;;;;;12272304;19;19999;-72
2022/08/06 02:32:14;;;;;;;0.00;0.00;;;;;;;;;;12266852;19;20012;-72
2022/08/06 02:36:17;;;;;;;0.00;0.00;;;;;;;;;;12269921;19;20123;-72
2022/08/06 02:40:24;;;;;;;0.00;0.00;;;;;;;;;;12273905;19;20517;-72
2022/08/06 02:44:57;;;;;;;0.00;0.00;;;;;;;;;;12273979;19;20034;-72
2022/08/06 02:49:11;;;;;;;0.00;0.00;;;;;;;;;;12271847;19;20025;-72
2022/08/06 02:53:24;;;;;;;0.00;0.00;;;;;;;;;;12270274;19;20003;-73
2022/08/06 02:57:31;;;;;;;0.00;0.00;;;;;;;;;;12269815;19;19999;-72
2022/08/06 03:01:36;;;;;;;0.00;0.00;;;;;;;;;;12275936;19;20002;-72
2022/08/06 03:05:37;;;;;;;0.00;0.00;;;;;;;;;;12272099;19;20054;-72
2022/08/06 03:09:41;;;;;;;0.00;0.00;;;;;;;;;;12271175;19;19995;-72
2022/08/06 03:13:43;;;;;;;0.00;0.00;;;;;;;;;;12269011;19;20006;-72
2022/08/06 03:17:46;;;;;;;0.00;0.00;;;;;;;;;;12269237;19;20046;-72
2022/08/06 03:21:49;;;;;;;0.00;0.00;;;;;;;;;;12275418;19;20011;-72
2022/08/06 03:25:51;;;;;;;0.00;0.00;;;;;;;;;;12269113;19;20010;-72
2022/08/06 03:29:51;;;;;;;;;;;;;;;;;;12267264;19;19999;-72
2022/08/06 03:33:53;;;;;;;0.00;0.00;;;;;;;;;;12268151;19;19927;-71
2022/08/06 03:37:56;;;;;;;0.00;0.00;;;;;;;;;;12273070;19;19991;-72
2022/08/06 03:41:56;;;;;;;0.00;0.00;;;;;;;;;;12268753;19;20003;-72
2022/08/06 03:46:01;;;;;;;0.00;0.00;;;;;;;;;;12268930;19;20055;-72
2022/08/06 03:50:36;;;;;;;0.00;0.00;;;;;;;;;;12272852;19;20005;-71
2022/08/06 03:54:43;;;;;;;0.00;0.00;;;;;;;;;;12281895;19;19987;-72
2022/08/06 03:58:45;;;;;;;0.00;0.00;;;;;;;;;;12279424;19;20003;-72
2022/08/06 04:02:48;;;;;;;0.00;0.00;;;;;;;;;;12276533;19;19994;-72
2022/08/06 04:06:49;;;;;;;0.00;0.00;;;;;;;;;;12275818;19;20003;-72
2022/08/06 04:10:50;;;;;;;0.00;0.00;;;;;;;;;;12273080;19;20006;-72
2022/08/06 04:14:51;;;;;;;0.00;0.00;;;;;;;;;;12279730;19;20007;-72
2022/08/06 04:18:55;;;;;;;0.00;0.00;;;;;;;;;;12279793;19;20002;-72
2022/08/06 04:22:56;;;;;;;0.00;0.00;;;;;;;;;;12278814;19;20006;-72
2022/08/06 04:27:00;;;;;;;0.00;0.00;;;;;;;;;;12275554;19;19991;-72
2022/08/06 04:31:01;;;;;;;0.00;0.00;;;;;;;;;;12276036;19;20234;-72
2022/08/06 04:35:03;;;;;;;0.00;0.00;;;;;;;;;;12278564;19;19991;-72
2022/08/06 04:39:04;;;;;;;0.00;0.00;;;;;;;;;;12277895;19;19983;-72
2022/08/06 04:43:06;;;;;;;0.00;0.00;;;;;;;;;;12283380;19;20003;-72
2022/08/06 04:47:07;;;;;;;;;;;;;;;;;;12281711;19;19999;-72
2022/08/06 04:51:07;;;;;;;0.00;0.00;;;;;;;;;;12275953;19;19971;-72
2022/08/06 04:55:08;;;;;;;0.00;0.00;;;;;;;;;;12279213;19;19995;-72
2022/08/06 04:59:10;;;;;;;0.00;0.00;;;;;;;;;;12276007;19;19995;-72
2022/08/06 05:03:10;;;;;;;0.00;0.00;;;;;;;;;;12278440;19;20205;-70
2022/08/06 05:07:20;;;;;;;0.00;0.00;;;;;;;;;;12275103;19;20206;-71
2022/08/06 05:11:40;;;;;;;0.00;0.00;;;;;;;;;;12271476;19;20019;-72
2022/08/06 05:15:45;;;;;;;0.00;0.00;;;;;;;;;;12276965;19;20134;-71
2022/08/06 05:19:55;;;;;;;0.00;0.00;;;;;;;;;;12279809;19;20014;-71
2022/08/06 05:23:57;;;;;;;0.00;0.00;;;;;;;;;;12279415;19;19999;-70
2022/08/06 05:27:59;;;;;;;0.00;0.00;;;;;;;;;;12276090;19;20002;-69
2022/08/06 05:32:01;;;;;;;0.00;0.00;;;;;;;;;;12271203;19;20006;-69
2022/08/06 05:36:02;;;;;;;;;;;;;;;;;;12274286;19;19994;-70
2022/08/06 05:40:05;;;;;;;0.00;0.00;;;;;;;;;;12277802;19;19915;-70
2022/08/06 05:44:05;;;;;;;;;;;;;;;;;;12278836;19;20011;-71
2022/08/06 05:48:07;;;;;;;0.00;0.00;;;;;;;;;;12276217;19;19942;-70
2022/08/06 05:52:29;;;;;;;0.00;0.00;;;;;;;;;;12270764;19;20003;-70
2022/08/06 05:56:37;;;;;;;0.00;0.00;;;;;;;;;;12277239;19;20131;-70
2022/08/06 06:00:38;;;;;;;0.00;0.00;;;;;;;;;;12278704;19;20054;-71
2022/08/06 06:04:42;;;;;;;0.00;0.00;;;;;;;;;;12275734;19;19998;-70
2022/08/06 06:08:43;;;;;;;0.00;0.00;;;;;;;;;;12279980;19;20014;-70
2022/08/06 06:12:44;;;;;;;0.00;0.00;;;;;;;;;;12275667;19;20006;-71
2022/08/06 06:16:54;;;;;;;0.00;0.00;;;;;;;;;;12271531;19;20215;-71
2022/08/06 06:21:05;;;;;;;0.00;0.00;;;;;;;;;;12272498;19;20002;-71
2022/08/06 06:25:18;;;;;;;0.00;0.00;;;;;;;;;;12270607;19;20106;-70
2022/08/06 06:29:40;;;;;;;0.00;0.00;;;;;;;;;;12277737;19;20078;-70
2022/08/06 06:33:43;;;;;;;0.00;0.00;;;;;;;;;;12276090;19;20042;-69
2022/08/06 06:38:00;;;;;;;0.00;0.00;;;;;;;;;;12274032;19;19999;-69
2022/08/06 06:42:11;;;;;;;0.00;0.00;;;;;;;;;;12272629;19;20021;-69
2022/08/06 06:46:36;;;;;;;0.00;0.00;;;;;;;;;;12270378;19;20017;-70
2022/08/06 06:50:42;;;;;;;0.00;0.00;;;;;;;;;;12268001;19;19987;-70
2022/08/06 06:54:47;;;;;;;0.00;0.00;;;;;;;;;;12275462;19;20140;-70
2022/08/06 06:59:01;;;;;;;0.00;0.00;;;;;;;;;;12270316;19;20002;-70
2022/08/06 07:03:04;;;;;;;0.00;0.00;;;;;;;;;;12274376;19;20269;-70
2022/08/06 07:07:05;;;;;;;0.00;0.00;;;;;;;;;;12276299;19;20030;-71
2022/08/06 07:11:06;;;;;;;0.00;0.00;;;;;;;;;;12271444;19;20138;-71
2022/08/06 07:15:07;;;;;;;0.00;0.00;;;;;;;;;;12270434;19;20132;-70
2022/08/06 07:19:09;;;;;;;0.00;0.00;;;;;;;;;;12269338;19;20003;-70
2022/08/06 07:23:10;;;;;;;0.00;0.00;;;;;;;;;;12273769;19;20010;-69
2022/08/06 07:27:12;;;;;;;0.00;0.00;;;;;;;;;;12269614;19;20068;-70
2022/08/06 07:31:13;;;;;;;0.00;0.00;;;;;;;;;;12268886;19;20030;-70
2022/08/06 07:35:14;;;;;;;0.00;0.00;;;;;;;;;;12268972;19;19982;-70
2022/08/06 07:39:17;;;;;;;0.00;0.00;;;;;;;;;;12271594;19;20117;-70
2022/08/06 07:43:22;;;;;;;0.00;0.00;;;;;;;;;;12271638;19;20053;-70
2022/08/06 07:47:40;;;;;;;0.00;0.00;;;;;;;;;;12273032;19;20029;-70
2022/08/06 07:51:43;;;;;;;0.00;0.00;;;;;;;;;;12264656;19;20020;-70
2022/08/06 07:55:44;;;;;;;0.00;0.00;;;;;;;;;;12272691;19;19999;-70
2022/08/06 07:59:44;;;;;;;0.00;0.00;;;;;;;;;;12266396;19;19999;-71
2022/08/06 08:08:05;;;;;;;0.00;0.00;;;;;;;;;;12271595;19;20217;-70
2022/08/06 08:12:06;;;;;;;0.00;0.00;;;;;;;;;;12269274;19;19998;-70
2022/08/06 08:16:09;;;;;;;0.00;0.00;;;;;;;;;;12266556;19;20225;-70
2022/08/06 08:20:10;;;;;;;0.00;0.00;;;;;;;;;;12273914;19;20067;-69
2022/08/06 08:24:11;;;;;;;0.00;0.00;;;;;;;;;;12271741;19;19998;-70
2022/08/06 08:28:12;;;;;;;0.00;0.00;;;;;;;;;;12266936;19;19999;-70
2022/08/06 08:32:12;;;;;;;0.00;0.00;;;;;;;;;;12264999;19;19998;-70
2022/08/06 08:36:13;;;;;;;0.00;0.00;;;;;;;;;;12271008;19;20014;-70
2022/08/06 08:40:13;;;;;;;0.00;0.00;;;;;;;;;;12274940;19;20002;-70
2022/08/06 08:44:20;;;;;;;0.00;0.00;;;;;;;;;;12286023;19;19995;-70
2022/08/06 08:48:24;;;;;;;0.00;0.00;;;;;;;;;;12281433;19;20021;-71
2022/08/06 08:52:44;;;;;;;0.00;0.00;;;;;;;;;;12277291;19;20002;-68
2022/08/06 08:56:45;;;;;;;0.00;0.00;;;;;;;;;;12279885;19;20003;-68
2022/08/06 09:00:46;;;;;;;0.00;0.00;;;;;;;;;;12279192;19;20135;-68
2022/08/06 09:04:47;;;;;;;0.00;0.00;;;;;;;;;;12275992;19;20007;-69
2022/08/06 09:08:48;;;;;;;0.00;0.00;;;;;;;;;;12278848;19;20203;-70
2022/08/06 09:12:49;;;;;;;0.00;0.00;;;;;;;;;;12274889;19;20003;-70
2022/08/06 09:16:49;;;;;;;0.00;0.00;;;;;;;;;;12276974;19;20489;-69
2022/08/06 09:20:50;;;;;;;0.00;0.00;;;;;;;;;;12279868;19;20135;-70
2022/08/06 09:24:51;;;;;;;0.00;0.00;;;;;;;;;;12277723;19;20025;-70
2022/08/06 09:28:52;;;;;;;0.00;0.00;;;;;;;;;;12279961;19;20214;-71
2022/08/06 09:32:55;;;;;;;0.00;0.00;;;;;;;;;;12276852;19;20163;-69
2022/08/06 09:36:56;;;;;;;0.00;0.00;;;;;;;;;;12276660;19;20235;-70
2022/08/06 09:41:04;;;;;;;0.00;0.00;;;;;;;;;;12275742;19;20236;-69
2022/08/06 09:45:07;;;;;;;0.00;0.00;;;;;;;;;;12279992;19;20003;-70
2022/08/06 09:49:10;;;;;;;0.00;0.00;;;;;;;;;;12273122;19;20000;-71
2022/08/06 09:53:12;;;;;;;0.00;0.00;;;;;;;;;;12274477;19;20014;-70
2022/08/06 09:57:13;;;;;;;0.00;0.00;;;;;;;;;;12279269;19;20134;-71
2022/08/06 10:01:24;;;;;;;0.00;0.00;;;;;;;;;;12277049;19;20126;-71
2022/08/06 10:05:25;;;;;;;0.00;0.00;;;;;;;;;;12270561;19;20007;-71
2022/08/06 10:09:26;;;;;;;0.00;0.00;;;;;;;;;;12275109;19;20025;-69
2022/08/06 10:13:27;;;;;;;0.00;0.00;;;;;;;;;;12278825;19;19999;-68
2022/08/06 10:17:28;;;;;;;0.00;0.00;;;;;;;;;;12272500;19;20039;-68
2022/08/06 10:21:32;;;;;;;0.00;0.00;;;;;;;;;;12272235;19;20104;-68
2022/08/06 10:25:34;;;;;;;0.00;0.00;;;;;;;;;;12274452;19;20223;-68
2022/08/06 10:30:02;;;;;;;0.00;0.00;;;;;;;;;;12270919;19;20010;-66
2022/08/06 10:34:13;;;;;;;0.00;0.00;;;;;;;;;;12276429;19;20021;-67
2022/08/06 10:38:22;;;;;;;0.00;0.00;;;;;;;;;;12274424;19;20007;-66
2022/08/06 10:42:23;;;;;;;0.00;0.00;;;;;;;;;;12274568;19;20013;-67
2022/08/06 10:46:24;;;;;;;0.00;0.00;;;;;;;;;;12271588;19;19998;-68
2022/08/06 10:50:25;;;;;;;0.00;0.00;;;;;;;;;;12274769;19;19995;-68
2022/08/06 10:54:26;;;;;;;0.00;0.00;;;;;;;;;;12273652;19;20003;-68
2022/08/06 10:58:29;;;;;;;0.00;0.00;;;;;;;;;;12272130;19;20059;-68
2022/08/06 11:02:56;;;;;;;0.00;0.00;;;;;;;;;;12273655;19;20001;-68
2022/08/06 11:07:21;;;;;;;0.00;0.00;;;;;;;;;;12269407;19;20051;-68
2022/08/06 11:11:47;;;;;;;0.00;0.00;;;;;;;;;;12271731;19;20006;-68
2022/08/06 11:15:48;;;;;;;0.00;0.00;;;;;;;;;;12275354;19;20127;-69
2022/08/06 11:19:49;;;;;;;0.00;0.00;;;;;;;;;;12274023;19;20227;-69
2022/08/06 11:24:00;;;;;;;0.00;0.00;;;;;;;;;;12272105;19;20051;-70
2022/08/06 11:28:01;;;;;;;0.00;0.00;;;;;;;;;;12274309;19;20143;-69
2022/08/06 11:32:02;;;;;;;0.00;0.00;;;;;;;;;;12266810;19;20006;-67
2022/08/06 11:36:05;;;;;;;0.00;0.00;;;;;;;;;;12268673;19;20013;-68
2022/08/06 11:40:07;;;;;;;0.00;0.00;;;;;;;;;;12269704;19;20119;-67
2022/08/06 11:44:07;;;;;;;;;;;;;;;;;;12273242;19;19995;-68
2022/08/06 11:48:08;;;;;;;0.00;0.00;;;;;;;;;;11778238;19;19989;-67
2022/08/06 11:52:09;;;;;;;0.00;0.00;;;;;;;;;;12125861;19;20019;-67
2022/08/06 11:56:10;;;;;;;0.00;0.00;;;;;;;;;;12269114;19;19999;-67
2022/08/06 12:00:14;;;;;;;0.00;0.00;;;;;;;;;;12273683;19;20242;-67
2022/08/06 12:04:39;;;;;;;0.00;0.00;;;;;;;;;;12267199;19;20465;-68
2022/08/06 12:08:39;;;;;;;0.00;0.00;;;;;;;;;;12272063;19;20019;-67
2022/08/06 12:18:21;;;;;;;0.00;0.00;;;;;;;;;;12324575;19;20895;-59
2022/08/06 12:22:22;;;;;;;0.00;0.00;;;;;;;;;;12332204;19;20007;-57
2022/08/06 12:26:23;;;;;;;0.00;0.00;;;;;;;;;;11904189;19;86818;-58
2022/08/06 12:30:24;;;;;;;0.00;0.00;;;;;;;;;;12227933;19;20010;-51
2022/08/06 12:34:26;;;;;;;0.00;0.00;;;;;;;;;;12332109;19;19998;-54
2022/08/06 12:38:30;;;;;;;0.00;0.00;;;;;;;;;;12329765;19;20062;-52
2022/08/06 12:42:32;;;;;;;0.03;0.03;;;;;;;;;;12329174;19;20058;-63
2022/08/06 12:46:32;;;;;;;0.10;0.10;;;;;;;;;;12333106;19;19990;-60
2022/08/06 12:50:35;;;;;;;0.00;0.00;;;;;;;;;;12322700;19;20029;-63
2022/08/06 12:54:36;;;;;;;0.00;0.00;;;;;;;;;;12332095;19;20151;-63
2022/08/06 12:58:38;;;;;;;0.00;0.00;;;;;;;;;;12333367;19;20215;-65
2022/08/06 13:02:39;;;;;;;0.00;0.00;;;;;;;;;;12329351;19;20034;-60
2022/08/06 13:06:40;;;;;;;0.00;0.00;;;;;;;;;;12325703;19;20034;-64
2022/08/06 13:10:48;;;;;;;0.00;0.00;;;;;;;;;;12328779;19;20122;-64
2022/08/06 13:14:56;;;;;;;0.00;0.00;;;;;;;;;;12327555;19;20018;-64
2022/08/06 13:19:12;;;;;;;0.00;0.00;;;;;;;;;;12331754;19;19998;-64
2022/08/06 13:23:15;;;;;;;0.00;0.00;;;;;;;;;;12188252;19;99439;-64
2022/08/06 13:27:15;;;;;;;0.00;0.00;;;;;;;;;;12302525;19;20018;-64
2022/08/06 13:31:20;;;;;;;0.00;0.00;;;;;;;;;;12280878;19;19991;-64
2022/08/06 13:35:27;;;;;;;0.00;0.00;;;;;;;;;;12279739;19;20003;-65
2022/08/06 13:39:30;;;;;;;0.00;0.00;;;;;;;;;;12281181;19;19990;-67
2022/08/06 13:43:38;;;;;;;0.00;0.00;;;;;;;;;;12279830;19;20011;-65
2022/08/06 13:47:39;;;;;;;0.00;0.00;;;;;;;;;;12274374;19;20003;-67
2022/08/06 13:51:39;;;;;;;0.00;0.00;;;;;;;;;;12282055;19;20001;-64
2022/08/06 13:55:43;;;;;;;0.00;0.00;;;;;;;;;;12280231;19;20133;-61
2022/08/06 13:59:44;;;;;;;0.00;0.00;;;;;;;;;;12281210;19;20015;-62
2022/08/06 14:03:44;;;;;;;0.00;0.00;;;;;;;;;;12277796;19;19998;-64
2022/08/06 14:07:45;;;;;;;0.00;0.00;;;;;;;;;;12276190;19;20227;-67
2022/08/06 14:11:46;;;;;;;0.00;0.00;;;;;;;;;;12280485;19;20006;-64
2022/08/06 14:15:49;;;;;;;0.00;0.00;;;;;;;;;;12278035;19;20126;-63
2022/08/06 14:19:50;;;;;;;0.00;0.00;;;;;;;;;;12278953;19;20062;-65
2022/08/06 14:23:50;;;;;;;0.00;0.00;;;;;;;;;;12280160;19;20055;-63
2022/08/06 14:27:52;;;;;;;0.00;0.00;;;;;;;;;;12271532;19;20291;-63
2022/08/06 14:31:52;;;;;;;0.00;0.00;;;;;;;;;;12278242;19;19999;-64
2022/08/06 14:35:53;;;;;;;0.00;0.00;;;;;;;;;;12277487;19;20492;-64
2022/08/06 14:39:53;;;;;;;0.00;0.00;;;;;;;;;;12272933;19;20010;-65
2022/08/06 14:48:14;;;;;;;0.00;0.00;;;;;;;;;;12275776;19;20262;-63
2022/08/06 14:52:15;;;;;;;0.00;0.00;;;;;;;;;;12276181;19;20003;-66
2022/08/06 14:56:15;;;;;;;0.00;0.00;;;;;;;;;;12272526;19;20006;-63
2022/08/06 15:00:16;;;;;;;0.00;0.00;;;;;;;;;;12273090;19;20230;-63
2022/08/06 15:04:17;;;;;;;0.00;0.00;;;;;;;;;;12269450;19;20000;-63
2022/08/06 15:08:17;;;;;;;0.00;0.00;;;;;;;;;;12273790;19;20002;-62
2022/08/06 15:12:18;;;;;;;0.00;0.00;;;;;;;;;;12274473;19;20015;-63
2022/08/06 15:16:18;;;;;;;0.00;0.00;;;;;;;;;;12274762;19;19998;-62
2022/08/06 15:20:19;;;;;;;0.00;0.00;;;;;;;;;;12276992;19;20018;-65
2022/08/06 15:24:19;;;;;;;0.00;0.00;;;;;;;;;;12271378;19;20111;-64
2022/08/06 15:28:20;;;;;;;0.00;0.00;;;;;;;;;;12274906;19;20002;-62
2022/08/06 15:32:21;;;;;;;0.00;0.00;;;;;;;;;;12274976;19;20002;-62
2022/08/06 15:36:21;;;;;;;0.00;0.00;;;;;;;;;;12273213;19;20010;-62
2022/08/06 15:40:22;;;;;;;0.00;0.00;;;;;;;;;;12268799;19;19991;-63
2022/08/06 15:44:22;;;;;;;0.00;0.00;;;;;;;;;;12269838;19;20070;-62
2022/08/06 15:48:24;;;;;;;0.00;0.00;;;;;;;;;;12275819;19;19995;-62
2022/08/06 15:52:25;;;;;;;0.00;0.00;;;;;;;;;;12267569;19;20006;-62
2022/08/06 15:56:27;;;;;;;0.00;0.00;;;;;;;;;;12275517;19;20006;-63
2022/08/06 16:00:27;;;;;;;;;;;;;;;;;;12268932;19;20008;-62
2022/08/06 16:04:29;;;;;;;0.00;0.00;;;;;;;;;;12272435;19;19919;-63
2022/08/06 16:08:32;;;;;;;0.00;0.00;;;;;;;;;;12272376;19;20485;-63
2022/08/06 16:12:32;;;;;;;0.00;0.00;;;;;;;;;;12270508;19;20014;-62
2022/08/06 16:16:33;;;;;;;0.00;0.00;;;;;;;;;;12265496;19;20096;-63
2022/08/06 16:20:33;;;;;;;0.00;0.00;;;;;;;;;;12273260;19;20015;-64
2022/08/06 16:24:34;;;;;;;0.00;0.00;;;;;;;;;;12271611;19;20002;-63
2022/08/06 16:28:34;;;;;;;0.00;0.00;;;;;;;;;;12270955;19;20182;-63
2022/08/06 16:32:35;;;;;;;0.00;0.00;;;;;;;;;;12267358;19;19997;-63
2022/08/06 16:36:36;;;;;;;0.00;0.00;;;;;;;;;;12274033;19;20030;-63
2022/08/06 16:40:36;;;;;;;0.00;0.00;;;;;;;;;;12270767;19;20006;-63
2022/08/06 16:44:37;;;;;;;0.00;0.00;;;;;;;;;;12270260;19;20003;-63
2022/08/06 16:48:38;;;;;;;0.00;0.00;;;;;;;;;;12269798;19;20003;-63
2022/08/06 16:52:39;;;;;;;0.00;0.00;;;;;;;;;;12266149;19;20002;-62
2022/08/06 16:56:40;;;;;;;0.00;0.00;;;;;;;;;;12271829;19;20276;-63
2022/08/06 17:00:41;;;;;;;0.00;0.00;;;;;;;;;;12270416;19;20051;-63
2022/08/06 17:04:41;;;;;;;0.00;0.00;;;;;;;;;;12274904;19;20051;-63
2022/08/06 17:08:42;;;;;;;0.00;0.00;;;;;;;;;;12276292;19;20006;-62
2022/08/06 17:12:44;;;;;;;0.00;0.00;;;;;;;;;;12285137;19;20022;-63
2022/08/06 17:16:45;;;;;;;0.00;0.00;;;;;;;;;;12279617;19;20022;-63
2022/08/06 17:20:47;;;;;;;0.00;0.00;;;;;;;;;;12280951;19;20007;-63
2022/08/06 17:24:48;;;;;;;0.00;0.00;;;;;;;;;;12277285;19;20003;-63
2022/08/06 17:28:48;;;;;;;0.00;0.00;;;;;;;;;;12277675;19;20034;-64
2022/08/06 17:32:51;;;;;;;0.00;0.00;;;;;;;;;;12282193;19;20046;-63
2022/08/06 17:36:52;;;;;;;0.00;0.00;;;;;;;;;;12276379;19;19999;-63
2022/08/06 17:40:53;;;;;;;0.00;0.00;;;;;;;;;;12281112;19;20002;-64
2022/08/06 17:44:53;;;;;;;0.00;0.00;;;;;;;;;;12278625;19;20003;-64
2022/08/06 17:48:54;;;;;;;0.00;0.00;;;;;;;;;;12276858;19;20020;-64
2022/08/06 17:52:55;;;;;;;0.00;0.00;;;;;;;;;;12275593;19;19986;-64
2022/08/06 17:56:57;;;;;;;0.00;0.00;;;;;;;;;;12281215;19;20128;-63
2022/08/06 18:00:57;;;;;;;0.00;0.00;;;;;;;;;;12280422;19;20006;-63
2022/08/06 18:04:58;;;;;;;0.00;0.00;;;;;;;;;;12275407;19;19999;-63
2022/08/06 18:08:59;;;;;;;0.00;0.00;;;;;;;;;;12274898;19;20010;-63
2022/08/06 18:13:00;;;;;;;0.00;0.00;;;;;;;;;;12273634;19;19986;-63
2022/08/06 18:17:01;;;;;;;0.00;0.00;;;;;;;;;;12278996;19;20046;-63
2022/08/06 18:21:02;;;;;;;0.00;0.00;;;;;;;;;;12277967;19;20054;-63
2022/08/06 18:25:03;;;;;;;0.00;0.00;;;;;;;;;;12275312;19;20103;-62
2022/08/06 18:29:04;;;;;;;0.00;0.00;;;;;;;;;;12280301;19;20234;-63
2022/08/06 18:33:05;;;;;;;0.00;0.00;;;;;;;;;;12277335;19;20029;-63
2022/08/06 18:37:05;;;;;;;0.00;0.00;;;;;;;;;;12274520;19;20007;-63
2022/08/06 18:41:06;;;;;;;0.00;0.00;;;;;;;;;;12276791;19;20003;-63
2022/08/06 18:45:07;;;;;;;0.00;0.00;;;;;;;;;;12277459;19;20000;-63
2022/08/06 18:49:08;;;;;;;0.00;0.00;;;;;;;;;;12278059;19;20189;-63
2022/08/06 18:53:08;;;;;;;0.00;0.00;;;;;;;;;;12276920;19;20239;-63
2022/08/06 18:57:13;;;;;;;0.00;0.00;;;;;;;;;;12279014;19;20007;-63
2022/08/06 19:01:14;;;;;;;0.00;0.00;;;;;;;;;;12275385;19;20021;-62
2022/08/06 19:05:15;;;;;;;0.00;0.00;;;;;;;;;;12271725;19;20131;-62
2022/08/06 19:09:15;;;;;;;0.00;0.00;;;;;;;;;;12272263;19;20003;-63
2022/08/06 19:13:16;;;;;;;0.00;0.00;;;;;;;;;;12271359;19;19998;-63
2022/08/06 19:17:20;;;;;;;0.00;0.00;;;;;;;;;;12274396;19;19994;-64
2022/08/06 19:21:20;;;;;;;0.00;0.00;;;;;;;;;;12275073;19;20025;-64
2022/08/06 19:25:22;;;;;;;0.00;0.00;;;;;;;;;;12273675;19;20006;-64
2022/08/06 19:29:22;;;;;;;0.00;0.00;;;;;;;;;;12277078;19;20050;-63
2022/08/06 19:33:23;;;;;;;0.00;0.00;;;;;;;;;;12276196;19;20058;-66
2022/08/06 19:45:45;;;;;;;0.00;0.00;;;;;;;;;;12204410;19;20139;-67
2022/08/06 19:49:45;;;;;;;0.00;0.00;;;;;;;;;;12273410;19;20042;-68
2022/08/06 19:53:46;;;;;;;0.00;0.00;;;;;;;;;;12271084;19;20017;-67
2022/08/06 19:57:46;;;;;;;0.00;0.00;;;;;;;;;;12271619;19;19995;-66
2022/08/06 20:01:47;;;;;;;0.00;0.00;;;;;;;;;;12272103;19;20244;-66
2022/08/06 20:05:47;;;;;;;0.00;0.00;;;;;;;;;;12268923;19;20059;-66
2022/08/06 20:09:48;;;;;;;0.00;0.00;;;;;;;;;;12269764;19;20251;-66
2022/08/06 20:13:51;;;;;;;0.00;0.00;;;;;;;;;;12268952;19;20001;-66
2022/08/06 20:17:52;;;;;;;0.00;0.00;;;;;;;;;;12276113;19;20004;-65
2022/08/06 20:21:52;;;;;;;0.00;0.00;;;;;;;;;;12272953;19;20007;-65
2022/08/06 20:25:55;;;;;;;0.00;0.00;;;;;;;;;;12269571;19;19994;-66
2022/08/06 20:29:56;;;;;;;0.00;0.00;;;;;;;;;;12269404;19;20019;-66
2022/08/06 20:33:57;;;;;;;0.00;0.00;;;;;;;;;;12267420;19;20135;-66
2022/08/06 20:37:57;;;;;;;0.00;0.00;;;;;;;;;;12278565;19;19987;-65
2022/08/06 20:41:58;;;;;;;0.00;0.00;;;;;;;;;;12285445;19;20111;-66
2022/08/06 20:45:58;;;;;;;0.00;0.00;;;;;;;;;;12282615;19;20143;-66
2022/08/06 20:49:59;;;;;;;0.00;0.00;;;;;;;;;;12279400;19;20951;-65
2022/08/06 20:54:00;;;;;;;0.00;0.00;;;;;;;;;;12280394;19;20017;-67
2022/08/06 20:58:00;;;;;;;0.00;0.00;;;;;;;;;;12277059;19;20074;-68
2022/08/06 21:02:01;;;;;;;0.00;0.00;;;;;;;;;;12274070;19;19998;-64
2022/08/06 21:06:01;;;;;;;0.00;0.00;;;;;;;;;;12276997;19;19986;-65
2022/08/06 21:10:03;;;;;;;0.00;0.00;;;;;;;;;;12283695;19;19998;-66
2022/08/06 21:14:04;;;;;;;0.00;0.00;;;;;;;;;;12281862;19;20015;-66
2022/08/06 21:18:04;;;;;;;0.00;0.00;;;;;;;;;;12282643;19;19999;-67
2022/08/06 21:22:05;;;;;;;0.00;0.00;;;;;;;;;;12285017;19;20002;-65
2022/08/06 21:26:05;;;;;;;0.00;0.00;;;;;;;;;;12276974;19;19999;-66
2022/08/06 21:30:06;;;;;;;0.00;0.00;;;;;;;;;;12277856;19;20000;-66
2022/08/06 21:34:07;;;;;;;0.00;0.00;;;;;;;;;;12283320;19;20002;-67
2022/08/06 21:38:08;;;;;;;0.00;0.00;;;;;;;;;;12277207;19;20129;-66
2022/08/06 21:42:08;;;;;;;0.00;0.00;;;;;;;;;;12284007;19;20052;-66
2022/08/06 21:46:09;;;;;;;0.00;0.00;;;;;;;;;;12273261;19;20027;-66
2022/08/06 21:50:10;;;;;;;0.00;0.00;;;;;;;;;;12282638;19;20007;-66
2022/08/06 21:54:10;;;;;;;0.00;0.00;;;;;;;;;;12276218;19;19983;-67
2022/08/06 21:58:11;;;;;;;0.00;0.00;;;;;;;;;;12281155;19;20234;-66
2022/08/06 22:02:11;;;;;;;0.00;0.00;;;;;;;;;;12278827;19;20009;-66
2022/08/06 22:06:12;;;;;;;0.00;0.00;;;;;;;;;;12273794;19;19991;-66
2022/08/06 22:10:12;;;;;;;0.00;0.00;;;;;;;;;;12276061;19;20226;-67
2022/08/06 22:14:14;;;;;;;0.00;0.00;;;;;;;;;;12275127;19;19991;-65
2022/08/06 22:18:16;;;;;;;0.00;0.00;;;;;;;;;;12276570;19;20037;-65
2022/08/06 22:22:17;;;;;;;0.00;0.00;;;;;;;;;;12273880;19;20071;-64
2022/08/06 22:26:17;;;;;;;0.00;0.00;;;;;;;;;;12274560;19;19999;-65
2022/08/06 22:30:34;;;;;;;0.00;0.00;;;;;;;;;;12274454;19;20005;-66
2022/08/06 22:34:34;;;;;;;0.00;0.00;;;;;;;;;;12273199;19;20219;-65
2022/08/06 22:38:34;;;;;;;0.00;0.00;;;;;;;;;;12279919;19;20210;-66
2022/08/06 22:42:36;;;;;;;0.00;0.00;;;;;;;;;;12278341;19;20009;-66
2022/08/06 22:46:36;;;;;;;0.00;0.00;;;;;;;;;;12270329;19;20003;-66
2022/08/06 22:50:38;;;;;;;0.00;0.00;;;;;;;;;;12273312;19;19990;-66
2022/08/06 22:54:39;;;;;;;0.00;0.00;;;;;;;;;;12272886;19;20002;-66
2022/08/06 22:58:39;;;;;;;0.00;0.00;;;;;;;;;;12275676;19;20007;-65
2022/08/06 23:02:40;;;;;;;0.00;0.00;;;;;;;;;;12274386;19;19995;-65
2022/08/06 23:06:40;;;;;;;0.00;0.00;;;;;;;;;;12271817;19;20009;-66
2022/08/06 23:10:42;;;;;;;0.00;0.00;;;;;;;;;;12271006;19;19979;-65
2022/08/06 23:14:42;;;;;;;0.00;0.00;;;;;;;;;;12278577;19;20047;-66
2022/08/06 23:18:42;;;;;;;0.00;0.00;;;;;;;;;;12274093;19;20001;-65
2022/08/06 23:22:43;;;;;;;0.00;0.00;;;;;;;;;;12270080;19;20272;-65
2022/08/06 23:26:43;;;;;;;0.00;0.00;;;;;;;;;;12269048;19;19987;-65
2022/08/06 23:30:44;;;;;;;0.00;0.00;;;;;;;;;;12276018;19;20009;-66
2022/08/06 23:34:44;;;;;;;0.00;0.00;;;;;;;;;;12269679;19;19983;-66
2022/08/06 23:38:45;;;;;;;0.00;0.00;;;;;;;;;;12273812;19;19999;-66
2022/08/06 23:42:45;;;;;;;0.00;0.00;;;;;;;;;;12271645;19;20007;-66
2022/08/06 23:46:46;;;;;;;0.00;0.00;;;;;;;;;;12265757;19;20038;-66
2022/08/06 23:50:47;;;;;;;0.00;0.00;;;;;;;;;;12271822;19;20156;-66
2022/08/06 23:54:48;;;;;;;0.00;0.00;;;;;;;;;;12269173;19;19979;-65
2022/08/06 23:58:48;;;;;;;0.00;0.00;;;;;;;;;;12268477;19;20020;-65
